createdAt,value
2017-01-23T00:00:01.757Z,0
2017-01-23T00:01:01.752Z,0
2017-01-23T00:02:01.703Z,0
2017-01-23T00:03:01.672Z,0
2017-01-23T00:04:01.651Z,0
2017-01-23T00:05:01.619Z,0
2017-01-23T00:06:01.591Z,0
2017-01-23T00:07:01.566Z,0
2017-01-23T00:08:01.552Z,0
2017-01-23T00:09:01.536Z,0
2017-01-23T00:10:01.489Z,0
2017-01-23T00:11:01.464Z,0
2017-01-23T00:12:01.431Z,0
2017-01-23T00:13:01.416Z,0
2017-01-23T00:14:01.377Z,0
2017-01-23T00:15:01.754Z,0
2017-01-23T00:16:01.728Z,0
2017-01-23T00:17:01.308Z,0
2017-01-23T00:18:01.284Z,0
2017-01-23T00:19:01.262Z,0
2017-01-23T00:20:01.228Z,0
2017-01-23T00:21:01.199Z,0
2017-01-23T00:22:01.169Z,0
2017-01-23T00:23:01.557Z,0
2017-01-23T00:24:01.114Z,0
2017-01-23T00:25:01.091Z,0
2017-01-23T00:26:01.099Z,0
2017-01-23T00:27:01.042Z,0
2017-01-23T00:28:01.011Z,0
2017-01-23T00:29:00.981Z,0
2017-01-23T00:30:00.956Z,0
2017-01-23T00:31:00.933Z,0
2017-01-23T00:32:00.900Z,0
2017-01-23T00:33:00.876Z,0
2017-01-23T00:34:00.842Z,0
2017-01-23T00:35:00.814Z,0
2017-01-23T00:36:00.795Z,0
2017-01-23T00:37:01.162Z,0
2017-01-23T00:38:00.737Z,0
2017-01-23T00:39:00.711Z,0
2017-01-23T00:40:00.694Z,0
2017-01-23T00:41:00.657Z,0
2017-01-23T00:42:00.634Z,0
2017-01-23T00:43:00.603Z,0
2017-01-23T00:44:00.978Z,0
2017-01-23T00:45:00.553Z,0
2017-01-23T00:46:00.534Z,0
2017-01-23T00:47:00.495Z,0
2017-01-23T00:48:00.468Z,0
2017-01-23T00:49:00.478Z,0
2017-01-23T00:50:00.414Z,0
2017-01-23T00:51:00.387Z,0
2017-01-23T00:52:00.359Z,0
2017-01-23T00:53:00.340Z,0
2017-01-23T00:54:00.312Z,0
2017-01-23T00:55:00.279Z,0
2017-01-23T00:56:00.252Z,0
2017-01-23T00:57:00.245Z,0
2017-01-23T00:58:00.205Z,0
2017-01-23T00:59:00.180Z,0
2017-01-23T01:00:00.147Z,0
2017-01-23T01:01:00.129Z,0
2017-01-23T01:02:00.091Z,0
2017-01-23T01:03:00.089Z,0
2017-01-23T01:04:00.034Z,0
2017-01-23T01:05:00.021Z,0
2017-01-23T01:05:59.985Z,0
2017-01-23T01:06:59.960Z,0
2017-01-23T01:07:59.934Z,0
2017-01-23T01:08:59.939Z,0
2017-01-23T01:09:59.879Z,0
2017-01-23T01:10:59.845Z,0
2017-01-23T01:11:59.825Z,0
2017-01-23T01:12:59.796Z,0
2017-01-23T01:14:00.166Z,0
2017-01-23T01:14:59.736Z,0
2017-01-23T01:15:59.713Z,0
2017-01-23T01:16:59.692Z,0
2017-01-23T01:17:59.659Z,0
2017-01-23T01:18:59.635Z,0
2017-01-23T01:19:59.606Z,0
2017-01-23T01:20:59.974Z,0
2017-01-23T01:21:59.554Z,0
2017-01-23T01:22:59.923Z,0
2017-01-23T01:23:59.503Z,0
2017-01-23T01:24:59.475Z,0
2017-01-23T01:25:59.442Z,0
2017-01-23T01:26:59.814Z,0
2017-01-23T01:27:59.414Z,0
2017-01-23T01:28:59.360Z,0
2017-01-23T01:29:59.337Z,0
2017-01-23T01:30:59.310Z,0
2017-01-23T01:31:59.285Z,0
2017-01-23T01:32:59.251Z,0
2017-01-23T01:33:59.230Z,0
2017-01-23T01:34:59.197Z,0
2017-01-23T01:35:59.178Z,0
2017-01-23T01:36:59.146Z,0
2017-01-23T01:37:59.133Z,0
2017-01-23T01:38:59.092Z,0
2017-01-23T01:39:59.065Z,0
2017-01-23T01:40:59.040Z,0
2017-01-23T01:41:59.012Z,0
2017-01-23T01:42:59.004Z,0
2017-01-23T01:43:58.980Z,0
2017-01-23T01:44:58.937Z,0
2017-01-23T01:45:58.902Z,0
2017-01-23T01:46:58.870Z,0
2017-01-23T01:47:59.245Z,0
2017-01-23T01:48:58.823Z,0
2017-01-23T01:49:58.793Z,0
2017-01-23T01:50:58.763Z,0
2017-01-23T01:51:58.771Z,0
2017-01-23T01:52:58.712Z,0
2017-01-23T01:53:58.884Z,0
2017-01-23T01:54:58.680Z,0
2017-01-23T01:55:58.630Z,0
2017-01-23T01:56:58.602Z,0
2017-01-23T01:57:58.581Z,0
2017-01-23T01:58:58.553Z,0
2017-01-23T01:59:58.564Z,0
2017-01-23T02:00:58.492Z,0
2017-01-23T02:01:58.465Z,0
2017-01-23T02:02:58.450Z,0
2017-01-23T02:03:58.410Z,0
2017-01-23T02:04:58.386Z,0
2017-01-23T02:05:58.367Z,0
2017-01-23T02:06:58.334Z,0
2017-01-23T02:07:58.308Z,0
2017-01-23T02:08:58.273Z,0
2017-01-23T02:09:58.247Z,0
2017-01-23T02:10:58.216Z,0
2017-01-23T02:11:58.195Z,0
2017-01-23T02:12:58.164Z,0
2017-01-23T02:13:58.138Z,0
2017-01-23T02:14:58.111Z,0
2017-01-23T02:15:58.086Z,0
2017-01-23T02:16:58.057Z,0
2017-01-23T02:17:58.031Z,0
2017-01-23T02:18:58.004Z,0
2017-01-23T02:19:57.978Z,0
2017-01-23T02:20:57.946Z,0
2017-01-23T02:21:57.973Z,0
2017-01-23T02:22:57.890Z,0
2017-01-23T02:23:57.869Z,0
2017-01-23T02:24:58.255Z,0
2017-01-23T02:25:57.821Z,0
2017-01-23T02:26:57.787Z,0
2017-01-23T02:27:58.153Z,0
2017-01-23T02:28:57.741Z,0
2017-01-23T02:29:57.709Z,0
2017-01-23T02:30:57.672Z,0
2017-01-23T02:31:57.651Z,0
2017-01-23T02:32:57.620Z,0
2017-01-23T02:33:57.601Z,0
2017-01-23T02:34:57.574Z,0
2017-01-23T02:35:57.532Z,0
2017-01-23T02:36:57.520Z,0
2017-01-23T02:37:57.482Z,0
2017-01-23T02:38:57.484Z,0
2017-01-23T02:39:57.427Z,0
2017-01-23T02:40:57.413Z,0
2017-01-23T02:41:57.374Z,0
2017-01-23T02:42:57.352Z,0
2017-01-23T02:43:57.316Z,0
2017-01-23T02:44:57.296Z,0
2017-01-23T02:45:57.263Z,0
2017-01-23T02:46:57.237Z,0
2017-01-23T02:47:57.208Z,0
2017-01-23T02:48:57.182Z,0
2017-01-23T02:49:57.552Z,0
2017-01-23T02:50:57.525Z,0
2017-01-23T02:51:57.106Z,0
2017-01-23T02:52:57.089Z,0
2017-01-23T02:53:57.045Z,0
2017-01-23T02:54:57.419Z,0
2017-01-23T02:55:56.991Z,0
2017-01-23T02:56:57.400Z,0
2017-01-23T02:57:56.936Z,0
2017-01-23T02:58:56.907Z,0
2017-01-23T02:59:56.877Z,0
2017-01-23T03:00:56.856Z,0
2017-01-23T03:01:56.830Z,0
2017-01-23T03:02:56.798Z,0
2017-01-23T03:03:56.771Z,0
2017-01-23T03:04:56.743Z,0
2017-01-23T03:05:57.134Z,0
2017-01-23T03:06:56.699Z,0
2017-01-23T03:07:56.668Z,0
2017-01-23T03:08:56.637Z,0
2017-01-23T03:09:56.607Z,0
2017-01-23T03:10:56.580Z,0
2017-01-23T03:11:56.553Z,0
2017-01-23T03:12:56.523Z,0
2017-01-23T03:13:56.553Z,0
2017-01-23T03:14:56.470Z,0
2017-01-23T03:15:56.449Z,0
2017-01-23T03:16:56.429Z,0
2017-01-23T03:17:56.387Z,0
2017-01-23T03:18:56.361Z,0
2017-01-23T03:19:56.331Z,0
2017-01-23T03:20:56.301Z,0
2017-01-23T03:21:56.282Z,0
2017-01-23T03:22:56.249Z,0
2017-01-23T03:23:56.217Z,0
2017-01-23T03:24:56.281Z,0
2017-01-23T03:25:56.172Z,0
2017-01-23T03:26:56.139Z,0
2017-01-23T03:27:56.113Z,0
2017-01-23T03:28:56.082Z,0
2017-01-23T03:29:56.062Z,0
2017-01-23T03:30:56.032Z,0
2017-01-23T03:31:56.031Z,0
2017-01-23T03:32:55.977Z,0
2017-01-23T03:33:55.946Z,0
2017-01-23T03:34:55.930Z,0
2017-01-23T03:35:55.890Z,0
2017-01-23T03:36:55.888Z,0
2017-01-23T03:37:55.842Z,0
2017-01-23T03:38:55.816Z,0
2017-01-23T03:39:55.783Z,0
2017-01-23T03:40:55.755Z,0
2017-01-23T03:41:55.729Z,0
2017-01-23T03:42:55.700Z,0
2017-01-23T03:43:55.675Z,0
2017-01-23T03:44:55.643Z,0
2017-01-23T03:45:55.616Z,0
2017-01-23T03:46:55.589Z,0
2017-01-23T03:47:55.565Z,0
2017-01-23T03:48:55.535Z,0
2017-01-23T03:49:55.507Z,0
2017-01-23T03:50:55.480Z,0
2017-01-23T03:51:55.459Z,0
2017-01-23T03:52:55.873Z,0
2017-01-23T03:53:55.621Z,0
2017-01-23T03:54:55.402Z,0
2017-01-23T03:55:55.378Z,0
2017-01-23T03:56:55.318Z,0
2017-01-23T03:57:55.316Z,0
2017-01-23T03:58:55.262Z,0
2017-01-23T03:59:55.234Z,0
2017-01-23T04:00:55.242Z,0
2017-01-23T04:01:55.178Z,0
2017-01-23T04:02:55.161Z,0
2017-01-23T04:03:55.122Z,0
2017-01-23T04:04:55.096Z,0
2017-01-23T04:05:55.060Z,0
2017-01-23T04:06:55.033Z,0
2017-01-23T04:07:55.016Z,0
2017-01-23T04:08:54.984Z,0
2017-01-23T04:09:54.985Z,0
2017-01-23T04:10:54.935Z,0
2017-01-23T04:11:54.903Z,0
2017-01-23T04:12:54.875Z,0
2017-01-23T04:13:55.295Z,0
2017-01-23T04:14:54.821Z,0
2017-01-23T04:15:54.810Z,0
2017-01-23T04:16:55.163Z,0
2017-01-23T04:17:54.729Z,0
2017-01-23T04:18:55.101Z,0
2017-01-23T04:19:54.676Z,0
2017-01-23T04:20:54.649Z,0
2017-01-23T04:21:54.620Z,0
2017-01-23T04:22:54.597Z,0
2017-01-23T04:23:54.565Z,0
2017-01-23T04:24:54.543Z,0
2017-01-23T04:25:54.520Z,0
2017-01-23T04:26:54.509Z,0
2017-01-23T04:27:54.458Z,0
2017-01-23T04:28:54.432Z,0
2017-01-23T04:29:54.398Z,0
2017-01-23T04:30:54.367Z,0
2017-01-23T04:31:54.346Z,0
2017-01-23T04:32:54.313Z,0
2017-01-23T04:33:54.351Z,0
2017-01-23T04:34:54.258Z,0
2017-01-23T04:35:54.238Z,0
2017-01-23T04:36:54.201Z,0
2017-01-23T04:37:54.211Z,0
2017-01-23T04:38:54.147Z,0
2017-01-23T04:39:54.140Z,0
2017-01-23T04:40:54.503Z,0
2017-01-23T04:41:54.063Z,0
2017-01-23T04:42:54.037Z,0
2017-01-23T04:43:54.008Z,0
2017-01-23T04:44:54.004Z,0
2017-01-23T04:45:53.957Z,0
2017-01-23T04:46:53.921Z,0
2017-01-23T04:47:53.893Z,0
2017-01-23T04:48:53.866Z,0
2017-01-23T04:49:53.841Z,0
2017-01-23T04:50:53.830Z,0
2017-01-23T04:51:53.784Z,0
2017-01-23T04:52:53.762Z,0
2017-01-23T04:53:53.726Z,0
2017-01-23T04:54:53.698Z,0
2017-01-23T04:55:53.675Z,0
2017-01-23T04:56:53.652Z,0
2017-01-23T04:57:53.615Z,0
2017-01-23T04:58:53.588Z,0
2017-01-23T04:59:53.556Z,0
2017-01-23T05:00:53.531Z,0
2017-01-23T05:01:53.506Z,0
2017-01-23T05:02:53.471Z,0
2017-01-23T05:03:53.443Z,0
2017-01-23T05:04:53.419Z,0
2017-01-23T05:05:53.429Z,0
2017-01-23T05:06:53.364Z,0
2017-01-23T05:07:53.339Z,0
2017-01-23T05:08:53.308Z,0
2017-01-23T05:09:53.280Z,0
2017-01-23T05:10:53.253Z,0
2017-01-23T05:11:53.227Z,0
2017-01-23T05:12:53.209Z,0
2017-01-23T05:13:53.195Z,0
2017-01-23T05:14:53.143Z,0
2017-01-23T05:15:53.116Z,0
2017-01-23T05:16:53.092Z,0
2017-01-23T05:17:53.057Z,0
2017-01-23T05:18:53.062Z,0
2017-01-23T05:19:53.011Z,0
2017-01-23T05:20:53.034Z,0
2017-01-23T05:21:52.968Z,0
2017-01-23T05:22:52.929Z,0
2017-01-23T05:23:52.893Z,0
2017-01-23T05:24:52.877Z,0
2017-01-23T05:25:52.870Z,0
2017-01-23T05:26:52.811Z,0
2017-01-23T05:27:53.178Z,0
2017-01-23T05:28:52.764Z,0
2017-01-23T05:29:52.733Z,0
2017-01-23T05:30:52.706Z,0
2017-01-23T05:31:52.677Z,0
2017-01-23T05:32:52.650Z,0
2017-01-23T05:33:52.621Z,0
2017-01-23T05:34:52.593Z,0
2017-01-23T05:35:52.570Z,0
2017-01-23T05:36:52.543Z,0
2017-01-23T05:37:52.516Z,0
2017-01-23T05:38:52.487Z,0
2017-01-23T05:39:52.460Z,0
2017-01-23T05:40:52.439Z,0
2017-01-23T05:41:52.437Z,0
2017-01-23T05:42:52.413Z,0
2017-01-23T05:43:52.356Z,0
2017-01-23T05:44:52.324Z,0
2017-01-23T05:45:52.303Z,0
2017-01-23T05:46:52.273Z,0
2017-01-23T05:47:52.249Z,0
2017-01-23T05:48:52.213Z,0
2017-01-23T05:49:52.188Z,0
2017-01-23T05:50:52.167Z,0
2017-01-23T05:51:52.143Z,0
2017-01-23T05:52:52.110Z,0
2017-01-23T05:53:52.290Z,0
2017-01-23T05:54:52.051Z,0
2017-01-23T05:55:52.059Z,0
2017-01-23T05:56:52.001Z,0
2017-01-23T05:57:51.974Z,0
2017-01-23T05:58:52.345Z,0
2017-01-23T05:59:51.927Z,0
2017-01-23T06:00:51.900Z,0
2017-01-23T06:01:51.887Z,0
2017-01-23T06:02:51.844Z,0
2017-01-23T06:03:51.816Z,0
2017-01-23T06:04:51.785Z,0
2017-01-23T06:05:51.773Z,0
2017-01-23T06:06:51.753Z,0
2017-01-23T06:07:51.712Z,0
2017-01-23T06:08:51.685Z,0
2017-01-23T06:09:51.657Z,0
2017-01-23T06:10:51.633Z,0
2017-01-23T06:11:51.605Z,0
2017-01-23T06:12:51.579Z,0
2017-01-23T06:13:51.552Z,0
2017-01-23T06:14:51.526Z,0
2017-01-23T06:15:51.497Z,0
2017-01-23T06:16:51.470Z,0
2017-01-23T06:17:51.442Z,0
2017-01-23T06:18:51.421Z,0
2017-01-23T06:19:51.394Z,0
2017-01-23T06:20:51.362Z,0
2017-01-23T06:21:51.354Z,0
2017-01-23T06:22:51.307Z,0
2017-01-23T06:23:51.281Z,0
2017-01-23T06:24:51.251Z,0
2017-01-23T06:25:51.620Z,0
2017-01-23T06:26:51.209Z,0
2017-01-23T06:27:51.177Z,0
2017-01-23T06:28:51.148Z,0
2017-01-23T06:29:51.133Z,0
2017-01-23T06:30:51.107Z,0
2017-01-23T06:31:51.070Z,0
2017-01-23T06:32:51.050Z,0
2017-01-23T06:33:51.021Z,0
2017-01-23T06:34:51.000Z,0
2017-01-23T06:35:50.963Z,0
2017-01-23T06:36:50.945Z,0
2017-01-23T06:37:50.914Z,0
2017-01-23T06:38:50.911Z,0
2017-01-23T06:39:50.858Z,0
2017-01-23T06:40:50.845Z,0
2017-01-23T06:41:50.805Z,0
2017-01-23T06:42:50.785Z,0
2017-01-23T06:43:50.750Z,0
2017-01-23T06:44:50.726Z,0
2017-01-23T06:45:50.702Z,0
2017-01-23T06:46:50.680Z,0
2017-01-23T06:47:50.650Z,0
2017-01-23T06:48:50.621Z,0
2017-01-23T06:49:50.602Z,0
2017-01-23T06:50:50.625Z,0
2017-01-23T06:51:50.564Z,0
2017-01-23T06:52:50.519Z,0
2017-01-23T06:53:50.491Z,0
2017-01-23T06:54:50.463Z,0
2017-01-23T06:55:50.441Z,0
2017-01-23T06:56:50.414Z,0
2017-01-23T06:57:50.386Z,0
2017-01-23T06:58:50.352Z,0
2017-01-23T06:59:50.333Z,0
2017-01-23T07:00:50.304Z,0
2017-01-23T07:01:50.280Z,0
2017-01-23T07:02:50.649Z,0
2017-01-23T07:03:50.229Z,0
2017-01-23T07:04:50.201Z,0
2017-01-23T07:05:50.169Z,0
2017-01-23T07:06:50.181Z,0
2017-01-23T07:07:50.120Z,0
2017-01-23T07:08:50.095Z,0
2017-01-23T07:09:50.068Z,0
2017-01-23T07:10:50.037Z,0
2017-01-23T07:11:50.013Z,0
2017-01-23T07:12:49.991Z,0
2017-01-23T07:13:49.962Z,0
2017-01-23T07:14:49.967Z,0
2017-01-23T07:15:49.916Z,0
2017-01-23T07:16:49.960Z,0
2017-01-23T07:17:49.863Z,0
2017-01-23T07:18:49.832Z,0
2017-01-23T07:19:49.814Z,0
2017-01-23T07:20:50.201Z,0
2017-01-23T07:21:49.758Z,0
2017-01-23T07:22:49.717Z,0
2017-01-23T07:23:49.703Z,0
2017-01-23T07:24:49.673Z,0
2017-01-23T07:25:49.664Z,0
2017-01-23T07:26:50.019Z,0
2017-01-23T07:27:49.597Z,0
2017-01-23T07:28:49.971Z,0
2017-01-23T07:29:49.543Z,0
2017-01-23T07:30:49.514Z,0
2017-01-23T07:31:49.490Z,0
2017-01-23T07:32:49.463Z,0
2017-01-23T07:33:49.435Z,0
2017-01-23T07:34:49.415Z,0
2017-01-23T07:35:49.381Z,0
2017-01-23T07:36:49.369Z,0
2017-01-23T07:37:49.728Z,0
2017-01-23T07:38:49.306Z,0
2017-01-23T07:39:49.290Z,0
2017-01-23T07:40:49.258Z,0
2017-01-23T07:41:49.221Z,0
2017-01-23T07:42:49.201Z,5
2017-01-23T07:43:49.182Z,5
2017-01-23T07:44:49.149Z,5
2017-01-23T07:45:49.123Z,5
2017-01-23T07:46:49.098Z,5
2017-01-23T07:47:49.070Z,5
2017-01-23T07:48:49.046Z,5
2017-01-23T07:49:49.022Z,5
2017-01-23T07:50:48.992Z,5
2017-01-23T07:51:48.967Z,10
2017-01-23T07:52:48.944Z,10
2017-01-23T07:53:49.142Z,10
2017-01-23T07:54:48.892Z,10
2017-01-23T07:55:49.020Z,10
2017-01-23T07:56:49.244Z,10
2017-01-23T07:57:48.822Z,10
2017-01-23T07:58:48.784Z,15
2017-01-23T07:59:48.764Z,15
2017-01-23T08:00:49.135Z,15
2017-01-23T08:01:48.720Z,15
2017-01-23T08:02:48.678Z,15
2017-01-23T08:03:49.058Z,15
2017-01-23T08:04:48.626Z,15
2017-01-23T08:05:48.621Z,15
2017-01-23T08:06:48.620Z,15
2017-01-23T08:07:48.563Z,15
2017-01-23T08:08:48.539Z,15
2017-01-23T08:09:48.508Z,15
2017-01-23T08:10:48.478Z,20
2017-01-23T08:11:48.455Z,20
2017-01-23T08:12:48.432Z,20
2017-01-23T08:13:48.405Z,20
2017-01-23T08:14:48.377Z,20
2017-01-23T08:15:48.353Z,20
2017-01-23T08:16:48.334Z,20
2017-01-23T08:17:48.319Z,20
2017-01-23T08:18:48.670Z,20
2017-01-23T08:19:48.263Z,20
2017-01-23T08:20:48.217Z,20
2017-01-23T08:21:48.203Z,20
2017-01-23T08:22:48.169Z,20
2017-01-23T08:23:48.144Z,20
2017-01-23T08:24:48.115Z,20
2017-01-23T08:25:48.546Z,20
2017-01-23T08:26:48.073Z,15
2017-01-23T08:27:48.052Z,20
2017-01-23T08:28:48.020Z,20
2017-01-23T08:29:47.997Z,20
2017-01-23T08:30:47.968Z,15
2017-01-23T08:31:47.946Z,20
2017-01-23T08:32:47.914Z,20
2017-01-23T08:33:47.895Z,20
2017-01-23T08:34:47.870Z,20
2017-01-23T08:35:47.845Z,20
2017-01-23T08:36:47.813Z,20
2017-01-23T08:37:47.802Z,15
2017-01-23T08:38:47.768Z,15
2017-01-23T08:39:47.771Z,20
2017-01-23T08:40:48.129Z,15
2017-01-23T08:41:47.711Z,15
2017-01-23T08:42:47.674Z,15
2017-01-23T08:43:47.638Z,15
2017-01-23T08:44:47.609Z,15
2017-01-23T08:45:47.588Z,20
2017-01-23T08:46:47.562Z,20
2017-01-23T08:47:47.530Z,20
2017-01-23T08:48:47.517Z,20
2017-01-23T08:49:47.484Z,20
2017-01-23T08:50:47.459Z,20
2017-01-23T08:51:47.440Z,20
2017-01-23T08:52:47.404Z,20
2017-01-23T08:53:47.381Z,20
2017-01-23T08:54:47.360Z,20
2017-01-23T08:55:47.342Z,20
2017-01-23T08:56:47.308Z,20
2017-01-23T08:57:47.283Z,20
2017-01-23T08:58:47.655Z,20
2017-01-23T08:59:47.238Z,20
2017-01-23T09:00:47.209Z,20
2017-01-23T09:01:47.190Z,20
2017-01-23T09:02:47.161Z,20
2017-01-23T09:03:47.131Z,25
2017-01-23T09:04:47.104Z,25
2017-01-23T09:05:47.085Z,25
2017-01-23T09:06:47.056Z,25
2017-01-23T09:07:47.032Z,25
2017-01-23T09:08:47.004Z,30
2017-01-23T09:09:46.978Z,30
2017-01-23T09:10:46.960Z,30
2017-01-23T09:11:46.931Z,30
2017-01-23T09:12:46.929Z,30
2017-01-23T09:13:46.875Z,30
2017-01-23T09:14:46.857Z,35
2017-01-23T09:15:46.850Z,35
2017-01-23T09:16:46.808Z,35
2017-01-23T09:17:46.778Z,35
2017-01-23T09:18:47.151Z,35
2017-01-23T09:19:46.733Z,35
2017-01-23T09:20:46.707Z,35
2017-01-23T09:21:46.692Z,35
2017-01-23T09:22:46.655Z,40
2017-01-23T09:23:46.632Z,40
2017-01-23T09:24:46.633Z,45
2017-01-23T09:25:46.622Z,45
2017-01-23T09:26:46.569Z,45
2017-01-23T09:27:46.565Z,45
2017-01-23T09:28:46.517Z,45
2017-01-23T09:29:46.889Z,40
2017-01-23T09:30:46.891Z,40
2017-01-23T09:31:46.446Z,40
2017-01-23T09:32:46.477Z,35
2017-01-23T09:33:46.788Z,35
2017-01-23T09:34:46.374Z,40
2017-01-23T09:35:46.337Z,40
2017-01-23T09:36:46.332Z,45
2017-01-23T09:37:46.280Z,45
2017-01-23T09:38:46.257Z,45
2017-01-23T09:39:46.240Z,45
2017-01-23T09:40:46.322Z,45
2017-01-23T09:41:46.193Z,45
2017-01-23T09:42:46.186Z,50
2017-01-23T09:43:46.135Z,45
2017-01-23T09:44:46.125Z,45
2017-01-23T09:45:46.167Z,50
2017-01-23T09:46:46.489Z,50
2017-01-23T09:47:46.053Z,50
2017-01-23T09:48:46.015Z,50
2017-01-23T09:49:46.000Z,50
2017-01-23T09:50:45.966Z,50
2017-01-23T09:51:45.938Z,50
2017-01-23T09:52:45.915Z,50
2017-01-23T09:53:46.308Z,50
2017-01-23T09:54:45.866Z,50
2017-01-23T09:55:45.839Z,50
2017-01-23T09:56:46.227Z,50
2017-01-23T09:57:45.795Z,50
2017-01-23T09:58:45.768Z,50
2017-01-23T09:59:45.746Z,55
2017-01-23T10:00:45.729Z,50
2017-01-23T10:01:45.718Z,50
2017-01-23T10:02:45.712Z,40
2017-01-23T10:03:45.653Z,35
2017-01-23T10:04:45.650Z,35
2017-01-23T10:05:45.598Z,30
2017-01-23T10:06:45.581Z,25
2017-01-23T10:07:45.559Z,25
2017-01-23T10:08:45.526Z,35
2017-01-23T10:09:45.508Z,45
2017-01-23T10:10:45.480Z,55
2017-01-23T10:11:45.464Z,55
2017-01-23T10:12:45.424Z,55
2017-01-23T10:13:45.418Z,55
2017-01-23T10:14:45.379Z,55
2017-01-23T10:15:45.394Z,55
2017-01-23T10:16:45.331Z,55
2017-01-23T10:17:45.312Z,50
2017-01-23T10:18:45.282Z,50
2017-01-23T10:19:45.261Z,55
2017-01-23T10:20:45.266Z,55
2017-01-23T10:21:45.215Z,55
2017-01-23T10:22:45.221Z,55
2017-01-23T10:23:45.167Z,60
2017-01-23T10:24:45.141Z,60
2017-01-23T10:25:45.141Z,55
2017-01-23T10:26:45.097Z,60
2017-01-23T10:27:45.077Z,55
2017-01-23T10:28:45.082Z,55
2017-01-23T10:29:45.024Z,55
2017-01-23T10:30:45.021Z,55
2017-01-23T10:31:44.973Z,55
2017-01-23T10:32:44.952Z,55
2017-01-23T10:33:44.930Z,55
2017-01-23T10:34:44.996Z,55
2017-01-23T10:35:44.884Z,55
2017-01-23T10:36:44.854Z,55
2017-01-23T10:37:44.829Z,55
2017-01-23T10:38:44.811Z,55
2017-01-23T10:39:44.789Z,55
2017-01-23T10:40:44.761Z,55
2017-01-23T10:41:44.735Z,60
2017-01-23T10:42:44.710Z,65
2017-01-23T10:43:44.686Z,60
2017-01-23T10:44:44.666Z,60
2017-01-23T10:45:44.647Z,60
2017-01-23T10:46:44.616Z,55
2017-01-23T10:47:44.589Z,60
2017-01-23T10:48:44.570Z,60
2017-01-23T10:49:44.554Z,65
2017-01-23T10:50:44.511Z,65
2017-01-23T10:51:44.500Z,65
2017-01-23T10:52:44.471Z,60
2017-01-23T10:53:44.474Z,60
2017-01-23T10:54:44.468Z,55
2017-01-23T10:55:44.412Z,55
2017-01-23T10:56:44.387Z,55
2017-01-23T10:57:44.360Z,60
2017-01-23T10:58:44.335Z,65
2017-01-23T10:59:44.309Z,60
2017-01-23T11:00:44.283Z,60
2017-01-23T11:01:44.256Z,55
2017-01-23T11:02:44.236Z,55
2017-01-23T11:03:44.215Z,60
2017-01-23T11:04:44.191Z,60
2017-01-23T11:05:44.573Z,60
2017-01-23T11:06:44.143Z,65
2017-01-23T11:07:44.114Z,70
2017-01-23T11:08:44.092Z,75
2017-01-23T11:09:44.123Z,70
2017-01-23T11:10:44.054Z,65
2017-01-23T11:11:44.022Z,65
2017-01-23T11:12:44.008Z,70
2017-01-23T11:13:43.979Z,70
2017-01-23T11:14:43.952Z,65
2017-01-23T11:15:43.934Z,65
2017-01-23T11:16:43.904Z,65
2017-01-23T11:17:43.887Z,65
2017-01-23T11:18:43.857Z,65
2017-01-23T11:19:43.828Z,70
2017-01-23T11:20:43.815Z,70
2017-01-23T11:21:44.192Z,70
2017-01-23T11:22:43.822Z,65
2017-01-23T11:23:43.737Z,65
2017-01-23T11:24:43.713Z,65
2017-01-23T11:25:43.691Z,65
2017-01-23T11:26:43.667Z,65
2017-01-23T11:27:43.657Z,65
2017-01-23T11:28:43.623Z,65
2017-01-23T11:29:43.612Z,70
2017-01-23T11:30:43.603Z,65
2017-01-23T11:31:43.562Z,70
2017-01-23T11:32:43.530Z,70
2017-01-23T11:33:43.505Z,70
2017-01-23T11:34:43.491Z,70
2017-01-23T11:35:43.465Z,65
2017-01-23T11:36:43.438Z,60
2017-01-23T11:37:43.419Z,60
2017-01-23T11:38:43.390Z,60
2017-01-23T11:39:43.371Z,65
2017-01-23T11:40:43.347Z,75
2017-01-23T11:41:43.327Z,75
2017-01-23T11:42:43.301Z,65
2017-01-23T11:43:43.272Z,65
2017-01-23T11:44:43.255Z,65
2017-01-23T11:45:43.242Z,65
2017-01-23T11:46:43.217Z,65
2017-01-23T11:47:43.196Z,75
2017-01-23T11:48:43.161Z,75
2017-01-23T11:49:43.140Z,75
2017-01-23T11:50:43.112Z,70
2017-01-23T11:51:43.096Z,70
2017-01-23T11:52:43.065Z,70
2017-01-23T11:53:43.042Z,70
2017-01-23T11:54:43.235Z,70
2017-01-23T11:55:43.003Z,70
2017-01-23T11:56:42.973Z,70
2017-01-23T11:57:42.966Z,70
2017-01-23T11:58:42.936Z,65
2017-01-23T11:59:42.915Z,65
2017-01-23T12:00:42.882Z,70
2017-01-23T12:01:42.864Z,70
2017-01-23T12:02:42.840Z,70
2017-01-23T12:03:42.815Z,70
2017-01-23T12:04:42.815Z,70
2017-01-23T12:05:42.783Z,70
2017-01-23T12:06:42.762Z,70
2017-01-23T12:07:42.731Z,70
2017-01-23T12:08:42.706Z,70
2017-01-23T12:09:42.678Z,70
2017-01-23T12:10:42.652Z,70
2017-01-23T12:11:42.634Z,65
2017-01-23T12:12:42.602Z,65
2017-01-23T12:13:42.981Z,60
2017-01-23T12:14:42.619Z,60
2017-01-23T12:15:42.557Z,60
2017-01-23T12:16:42.524Z,60
2017-01-23T12:17:42.908Z,60
2017-01-23T12:18:42.470Z,60
2017-01-23T12:19:42.850Z,55
2017-01-23T12:20:42.431Z,55
2017-01-23T12:21:42.409Z,60
2017-01-23T12:22:42.383Z,60
2017-01-23T12:23:42.362Z,65
2017-01-23T12:24:42.343Z,65
2017-01-23T12:25:42.326Z,65
2017-01-23T12:26:42.288Z,65
2017-01-23T12:27:42.272Z,65
2017-01-23T12:28:42.250Z,65
2017-01-23T12:29:42.227Z,65
2017-01-23T12:30:42.204Z,70
2017-01-23T12:31:42.184Z,65
2017-01-23T12:32:42.158Z,65
2017-01-23T12:33:42.132Z,65
2017-01-23T12:34:42.115Z,65
2017-01-23T12:35:42.086Z,60
2017-01-23T12:36:42.087Z,55
2017-01-23T12:37:42.043Z,55
2017-01-23T12:38:42.024Z,55
2017-01-23T12:39:42.001Z,55
2017-01-23T12:40:41.972Z,55
2017-01-23T12:41:41.975Z,55
2017-01-23T12:42:41.926Z,50
2017-01-23T12:43:41.912Z,50
2017-01-23T12:44:41.889Z,50
2017-01-23T12:45:41.867Z,50
2017-01-23T12:46:41.835Z,45
2017-01-23T12:47:41.872Z,45
2017-01-23T12:48:41.803Z,50
2017-01-23T12:49:41.782Z,50
2017-01-23T12:50:41.779Z,45
2017-01-23T12:51:41.762Z,40
2017-01-23T12:52:41.703Z,35
2017-01-23T12:53:41.682Z,35
2017-01-23T12:54:41.662Z,35
2017-01-23T12:55:41.648Z,40
2017-01-23T12:56:42.056Z,40
2017-01-23T12:57:42.012Z,45
2017-01-23T12:58:41.574Z,45
2017-01-23T12:59:41.624Z,45
2017-01-23T13:00:41.940Z,50
2017-01-23T13:01:41.502Z,50
2017-01-23T13:02:41.493Z,45
2017-01-23T13:03:41.462Z,45
2017-01-23T13:04:41.438Z,45
2017-01-23T13:05:41.432Z,45
2017-01-23T13:06:41.396Z,45
2017-01-23T13:07:41.378Z,40
2017-01-23T13:08:41.346Z,35
2017-01-23T13:09:41.322Z,35
2017-01-23T13:10:41.305Z,40
2017-01-23T13:11:41.279Z,45
2017-01-23T13:12:41.249Z,50
2017-01-23T13:13:41.232Z,55
2017-01-23T13:14:41.206Z,55
2017-01-23T13:15:41.181Z,60
2017-01-23T13:16:41.562Z,55
2017-01-23T13:17:41.534Z,55
2017-01-23T13:18:41.109Z,60
2017-01-23T13:19:41.096Z,60
2017-01-23T13:20:41.457Z,65
2017-01-23T13:21:41.447Z,65
2017-01-23T13:22:41.023Z,65
2017-01-23T13:23:41.017Z,60
2017-01-23T13:24:40.979Z,60
2017-01-23T13:25:40.962Z,55
2017-01-23T13:26:40.932Z,55
2017-01-23T13:27:40.907Z,55
2017-01-23T13:28:40.888Z,55
2017-01-23T13:29:40.864Z,55
2017-01-23T13:30:40.842Z,55
2017-01-23T13:31:41.226Z,55
2017-01-23T13:32:40.800Z,50
2017-01-23T13:33:40.884Z,45
2017-01-23T13:34:40.779Z,45
2017-01-23T13:35:40.731Z,50
2017-01-23T13:36:41.100Z,50
2017-01-23T13:37:40.685Z,50
2017-01-23T13:38:40.661Z,55
2017-01-23T13:39:40.638Z,55
2017-01-23T13:40:40.623Z,55
2017-01-23T13:41:40.989Z,55
2017-01-23T13:42:40.563Z,55
2017-01-23T13:43:40.551Z,55
2017-01-23T13:44:40.530Z,50
2017-01-23T13:45:40.891Z,50
2017-01-23T13:46:40.473Z,50
2017-01-23T13:47:40.464Z,50
2017-01-23T13:48:40.430Z,50
2017-01-23T13:49:40.409Z,45
2017-01-23T13:50:40.389Z,45
2017-01-23T13:51:40.367Z,45
2017-01-23T13:52:40.345Z,45
2017-01-23T13:53:40.330Z,45
2017-01-23T13:54:40.505Z,45
2017-01-23T13:55:40.282Z,45
2017-01-23T13:56:40.251Z,40
2017-01-23T13:57:40.256Z,40
2017-01-23T13:58:40.214Z,45
2017-01-23T13:59:40.190Z,45
2017-01-23T14:00:40.168Z,40
2017-01-23T14:01:40.168Z,40
2017-01-23T14:02:40.526Z,40
2017-01-23T14:03:40.500Z,40
2017-01-23T14:04:40.066Z,40
2017-01-23T14:05:40.047Z,35
2017-01-23T14:06:40.028Z,35
2017-01-23T14:07:39.997Z,40
2017-01-23T14:08:40.375Z,35
2017-01-23T14:09:39.965Z,35
2017-01-23T14:10:39.941Z,30
2017-01-23T14:11:39.914Z,30
2017-01-23T14:12:39.891Z,35
2017-01-23T14:13:39.872Z,35
2017-01-23T14:14:39.845Z,35
2017-01-23T14:15:39.824Z,35
2017-01-23T14:16:39.826Z,35
2017-01-23T14:17:39.798Z,35
2017-01-23T14:18:39.766Z,35
2017-01-23T14:19:39.731Z,30
2017-01-23T14:20:39.705Z,30
2017-01-23T14:21:40.083Z,30
2017-01-23T14:22:39.665Z,30
2017-01-23T14:23:39.637Z,30
2017-01-23T14:24:39.622Z,30
2017-01-23T14:25:39.604Z,35
2017-01-23T14:26:39.576Z,35
2017-01-23T14:27:39.552Z,35
2017-01-23T14:28:40.320Z,35
2017-01-23T14:29:39.499Z,30
2017-01-23T14:30:39.485Z,30
2017-01-23T14:31:39.464Z,30